Alyth, United Kingdom
Current Conditions -  °F | °C
As of 5:20 PM on Sunday 23 Nov 2014 (Local Time) from EGPN Reporting Station
Clear Clear  
Wind Chill: 37°   Ceiling: Unl
Heat Index: 43°   Visibility: 6mi
Dew Point: 41°   Wind: 12mph
Humidity: 93%   Direction: 250°WSW
Pressure: 29.97"   Gusts: NA
Location:  56.62°N, 3.23°W
Report Text: EGPN 231720Z 25010KT CAVOK 06/05 Q1015
Loading
Personal Weather Stations






























Interactive Weather Map New forecast layout! Learn more

10-Day Weather Forecast

Advertisements
Track Severe Weather on mobile